Time;durP1;ratioP1;P1;durP2;ratioP2;P2;SDS_P1;SDS_P2;PMS_P1;PMS_P2;Temp;Humidity;BMP_temperature;BMP_pressure;BME280_temperature;BME280_humidity;BME280_pressure;Samples;Min_cycle;Max_cycle;Signal;HPM_P1;HPM_P2
2021/07/08 00:03:39;;;;;;;7.13;5.78;;;;;;;14.99;82.12;101797.53;10586934;28;20429;-62
2021/07/08 00:08:41;;;;;;;11.13;6.47;;;;;;;14.90;82.70;101791.03;10586096;28;20054;-62
2021/07/08 00:13:46;;;;;;;7.70;6.05;;;;;;;15.03;81.72;101794.63;10586024;28;20050;-62
2021/07/08 00:18:52;;;;;;;11.88;6.35;;;;;;;14.96;81.94;101793.31;10585611;28;20059;-61
2021/07/08 00:23:54;;;;;;;11.50;7.05;;;;;;;14.92;82.44;101790.94;10586185;28;20040;-63
2021/07/08 00:28:57;;;;;;;9.93;6.32;;;;;;;14.94;81.60;101803.09;10584494;28;20179;-63
2021/07/08 00:34:01;;;;;;;8.82;5.45;;;;;;;14.87;81.89;101799.13;10584974;28;20054;-63
2021/07/08 00:39:04;;;;;;;7.45;5.75;;;;;;;14.77;82.82;101803.25;10584787;28;20407;-63
2021/07/08 00:44:07;;;;;;;10.52;5.18;;;;;;;15.00;81.62;101796.63;10584669;28;20048;-62
2021/07/08 00:49:09;;;;;;;9.65;6.50;;;;;;;14.78;82.68;101799.69;10584852;28;20047;-62
2021/07/08 00:54:12;;;;;;;8.38;6.35;;;;;;;14.94;81.93;101792.53;10584374;28;20047;-63
2021/07/08 00:59:15;;;;;;;7.03;5.45;;;;;;;14.91;82.41;101794.50;10583403;28;20096;-62
2021/07/08 01:04:18;;;;;;;9.07;5.85;;;;;;;14.96;81.84;101792.44;10583961;28;20062;-63
2021/07/08 01:09:20;;;;;;;6.20;5.60;;;;;;;14.88;82.69;101797.31;10566603;28;20051;-60
2021/07/08 01:14:23;;;;;;;7.63;6.15;;;;;;;14.88;83.37;101802.59;10582753;28;20049;-60
2021/07/08 01:19:27;;;;;;;11.38;6.57;;;;;;;15.24;81.76;101810.09;10583707;28;20052;-60
2021/07/08 01:24:30;;;;;;;7.60;5.43;;;;;;;15.24;82.25;101813.56;10583237;28;20058;-60
2021/07/08 01:29:33;;;;;;;11.55;6.40;;;;;;;14.88;83.39;101819.28;10582914;28;20434;-59
2021/07/08 01:34:35;;;;;;;8.00;4.88;;;;;;;15.21;81.74;101808.50;10582722;28;20051;-62
2021/07/08 01:39:38;;;;;;;9.70;5.90;;;;;;;15.26;82.23;101812.63;10582362;28;20039;-62
2021/07/08 01:44:40;;;;;;;7.13;6.38;;;;;;;15.01;82.74;101812.34;10581101;28;20406;-63
2021/07/08 01:49:43;;;;;;;7.82;6.97;;;;;;;15.28;82.30;101803.69;10582173;28;20047;-61
2021/07/08 01:54:46;;;;;;;11.27;6.72;;;;;;;15.16;82.53;101802.66;10582775;28;20407;-61
2021/07/08 01:59:48;;;;;;;7.30;6.20;;;;;;;15.37;82.00;101789.94;10564825;28;20044;-61
2021/07/08 02:04:50;;;;;;;11.23;6.82;;;;;;;15.00;82.93;101796.63;10581973;28;20498;-62
2021/07/08 02:09:53;;;;;;;9.15;6.68;;;;;;;14.98;83.50;101799.34;10581520;28;20407;-60
2021/07/08 02:14:55;;;;;;;7.20;6.50;;;;;;;15.11;83.09;101786.25;10581671;28;20502;-61
2021/07/08 02:19:58;;;;;;;9.82;6.20;;;;;;;14.89;82.88;101784.06;10581257;28;20067;-62
2021/07/08 02:25:00;;;;;;;7.47;6.72;;;;;;;14.63;84.33;101788.25;10580547;28;20044;-62
2021/07/08 02:30:07;;;;;;;7.68;6.40;;;;;;;14.78;83.76;101792.63;10581598;28;20056;-63
2021/07/08 02:35:11;;;;;;;8.20;5.80;;;;;;;14.85;83.35;101785.19;10581969;28;20055;-62
2021/07/08 02:40:19;;;;;;;8.25;7.15;;;;;;;14.65;84.03;101781.09;10581250;28;20132;-61
2021/07/08 02:45:24;;;;;;;11.35;6.53;;;;;;;14.63;83.73;101783.81;10581704;28;20054;-62
2021/07/08 02:50:29;;;;;;;11.07;6.78;;;;;;;14.69;83.35;101785.25;10580141;28;20043;-62
2021/07/08 02:55:31;;;;;;;6.80;5.88;;;;;;;14.75;83.59;101791.97;10580678;28;20047;-62
2021/07/08 03:00:34;;;;;;;9.15;5.97;;;;;;;14.94;83.16;101781.16;10580979;28;20044;-62
2021/07/08 03:05:36;;;;;;;9.18;6.20;;;;;;;14.98;82.73;101780.03;10580498;28;20119;-62
2021/07/08 03:10:40;;;;;;;12.18;6.50;;;;;;;14.89;84.02;101786.69;10579568;28;20406;-63
2021/07/08 03:15:42;;;;;;;8.65;6.85;;;;;;;15.03;83.43;101789.34;10580598;28;20047;-61
2021/07/08 03:20:48;;;;;;;7.22;6.30;;;;;;;15.00;83.86;101789.53;10584469;28;20048;-61
2021/07/08 03:25:50;;;;;;;10.90;6.05;;;;;;;15.08;83.41;101804.91;10588190;28;20043;-61
2021/07/08 03:30:52;;;;;;;10.77;6.30;;;;;;;15.23;82.42;101803.09;10587884;28;20051;-63
2021/07/08 03:35:55;;;;;;;8.02;5.90;;;;;;;15.22;82.52;101814.63;10587466;28;20414;-62
2021/07/08 03:40:57;;;;;;;7.43;5.63;;;;;;;15.30;82.72;101804.44;10586989;28;20053;-62
2021/07/08 03:45:59;;;;;;;12.10;6.40;;;;;;;15.16;83.13;101810.56;10586760;28;20491;-61
2021/07/08 03:51:02;;;;;;;10.93;6.70;;;;;;;14.99;83.94;101818.63;10586946;28;20048;-62
2021/07/08 03:56:04;;;;;;;9.48;6.22;;;;;;;15.27;83.32;101822.25;10586674;28;20051;-59
2021/07/08 04:01:07;;;;;;;6.80;6.18;;;;;;;15.28;83.37;101821.31;10585689;28;20044;-60
2021/07/08 04:06:09;;;;;;;6.10;5.50;;;;;;;15.78;81.46;101820.00;10586144;28;20058;-59
2021/07/08 04:11:11;;;;;;;9.75;6.82;;;;;;;15.30;83.91;101812.38;10586175;28;20487;-60
2021/07/08 04:16:14;;;;;;;10.90;6.63;;;;;;;15.25;82.67;101809.16;10584732;28;20386;-60
2021/07/08 04:21:16;;;;;;;9.88;6.15;;;;;;;15.35;82.85;101815.56;10586519;28;20114;-59
2021/07/08 04:26:19;;;;;;;11.02;6.32;;;;;;;15.52;82.75;101811.03;10585529;28;20453;-60
2021/07/08 04:31:21;;;;;;;7.93;6.28;;;;;;;15.36;83.23;101811.97;10585907;28;20039;-60
2021/07/08 04:36:24;;;;;;;7.00;6.40;;;;;;;15.15;84.22;101822.06;10585029;28;20043;-60
2021/07/08 04:41:26;;;;;;;13.80;6.57;;;;;;;15.38;83.50;101825.06;10585098;28;20039;-59
2021/07/08 04:46:28;;;;;;;8.10;5.85;;;;;;;15.32;83.80;101823.66;10584534;28;20058;-60
2021/07/08 04:51:31;;;;;;;10.20;5.45;;;;;;;15.33;83.85;101829.78;10584595;28;20046;-59
2021/07/08 04:56:33;;;;;;;6.72;6.03;;;;;;;15.41;84.12;101843.34;10584690;28;20047;-60
2021/07/08 05:01:35;;;;;;;6.45;5.65;;;;;;;15.65;83.07;101859.50;10584589;28;20475;-60
2021/07/08 05:06:38;;;;;;;8.45;6.30;;;;;;;16.13;81.38;101848.59;10583792;28;20052;-60
2021/07/08 05:11:42;;;;;;;10.98;6.20;;;;;;;15.85;82.83;101860.91;10582767;28;20044;-59
2021/07/08 05:16:44;;;;;;;10.60;7.10;;;;;;;15.78;82.89;101863.09;10583329;28;20043;-61
2021/07/08 05:21:49;;;;;;;9.38;6.90;;;;;;;16.00;82.13;101860.88;10583301;28;20399;-63
2021/07/08 05:26:52;;;;;;;7.63;6.70;;;;;;;16.02;82.15;101870.41;10582980;28;20078;-61
2021/07/08 05:31:54;;;;;;;9.23;7.22;;;;;;;16.41;81.35;101886.44;10582192;28;20121;-61
2021/07/08 05:36:57;;;;;;;9.02;6.90;;;;;;;16.77;79.54;101869.13;10582778;28;20092;-61
2021/07/08 05:41:59;;;;;;;11.48;9.88;;;;;;;17.04;77.90;101883.16;10581211;28;20075;-60
2021/07/08 05:47:01;;;;;;;13.23;10.88;;;;;;;17.23;79.03;101888.06;10581316;28;20422;-62
2021/07/08 05:52:24;;;;;;;14.30;10.45;;;;;;;17.46;78.84;101890.91;10583688;28;20055;-61
2021/07/08 05:57:27;;;;;;;10.93;9.60;;;;;;;17.43;78.26;101875.25;10582271;28;20043;-61
2021/07/08 06:02:29;;;;;;;17.15;9.40;;;;;;;17.70;76.46;101876.91;10582104;28;20057;-62
2021/07/08 06:07:31;;;;;;;13.13;9.68;;;;;;;17.20;78.08;101866.25;10581254;28;20048;-60
2021/07/08 06:12:34;;;;;;;15.70;10.70;;;;;;;17.17;78.86;101864.66;10582095;28;20046;-61
2021/07/08 06:17:37;;;;;;;12.95;10.70;;;;;;;17.29;77.73;101862.13;10580855;28;20050;-60
2021/07/08 06:22:39;;;;;;;11.73;10.52;;;;;;;17.42;77.88;101873.56;10581620;28;20396;-61
2021/07/08 06:27:42;;;;;;;14.55;12.80;;;;;;;17.46;78.82;101870.56;10581228;28;20057;-61
2021/07/08 06:32:44;;;;;;;19.45;14.43;;;;;;;17.85;77.20;101883.78;10581626;28;20047;-60
2021/07/08 06:37:48;;;;;;;22.15;12.50;;;;;;;18.16;76.60;101889.56;10581148;28;20051;-60
2021/07/08 06:42:51;;;;;;;15.82;13.63;;;;;;;18.48;75.66;101873.13;10580944;28;20399;-61
2021/07/08 06:48:03;;;;;;;19.13;14.00;;;;;;;18.73;73.89;101888.88;10580015;28;20141;-61
2021/07/08 06:53:06;;;;;;;;;;;;;;;18.77;74.71;101892.16;10580729;28;20083;-61
2021/07/08 06:58:10;;;;;;;15.15;12.15;;;;;;;19.08;72.62;101901.34;10588898;28;19926;-61
2021/07/08 07:03:12;;;;;;;19.58;16.48;;;;;;;19.15;73.72;101907.03;10589365;28;20048;-60
2021/07/08 07:08:15;;;;;;;19.45;15.80;;;;;;;19.21;74.07;101911.84;10588623;28;20502;-61
2021/07/08 07:13:17;;;;;;;20.08;17.95;;;;;;;19.54;73.02;101914.69;10589152;28;20047;-61
2021/07/08 07:18:20;;;;;;;22.25;18.25;;;;;;;20.23;70.78;101918.06;10588322;28;20044;-61
2021/07/08 07:23:22;;;;;;;20.50;15.23;;;;;;;20.25;72.15;101919.75;10587952;28;20051;-60
2021/07/08 07:28:24;;;;;;;19.70;13.70;;;;;;;20.35;71.58;101915.38;10564944;28;20435;-60
2021/07/08 07:33:27;;;;;;;16.63;12.35;;;;;;;20.49;71.34;101924.88;10542659;28;20480;-61
2021/07/08 07:38:29;;;;;;;16.88;14.40;;;;;;;21.23;68.43;101922.31;10545423;28;20063;-61
2021/07/08 07:43:31;;;;;;;20.95;17.00;;;;;;;20.67;67.40;101915.41;10544151;28;20044;-61
2021/07/08 07:48:34;;;;;;;15.68;13.73;;;;;;;21.76;68.60;101928.50;10543411;28;20048;-61
2021/07/08 07:53:37;;;;;;;22.88;15.30;;;;;;;21.84;66.12;101932.16;10545111;28;20044;-61
2021/07/08 07:58:39;;;;;;;20.73;16.40;;;;;;;22.06;66.34;101941.78;10544645;28;20070;-61
2021/07/08 08:03:42;;;;;;;15.05;13.02;;;;;;;22.16;64.37;101939.16;10544494;28;20051;-61
2021/07/08 08:08:46;;;;;;;15.30;12.57;;;;;;;22.45;62.85;101941.91;10543838;28;20052;-61
2021/07/08 08:13:48;;;;;;;15.15;11.40;;;;;;;23.23;62.21;101924.19;10544001;28;20059;-61
2021/07/08 08:18:51;;;;;;;16.92;12.77;;;;;;;22.86;60.84;101915.06;10543621;28;20056;-60
2021/07/08 08:23:53;;;;;;;16.73;13.13;;;;;;;23.60;58.66;101918.88;10543530;28;20045;-62
2021/07/08 08:28:56;;;;;;;16.48;12.77;;;;;;;23.56;59.73;101912.97;10543224;28;20075;-61
2021/07/08 08:33:58;;;;;;;20.42;12.45;;;;;;;23.08;59.82;101918.47;10543706;28;20591;-60
2021/07/08 08:39:00;;;;;;;14.98;12.25;;;;;;;23.32;60.26;101929.53;10542834;28;20062;-60
2021/07/08 08:44:05;;;;;;;15.70;11.07;;;;;;;22.95;60.91;101927.59;10542693;28;20495;-61
2021/07/08 08:49:07;;;;;;;12.75;10.05;;;;;;;22.49;60.93;101922.94;10542322;28;20135;-60
2021/07/08 08:54:10;;;;;;;15.43;10.15;;;;;;;22.30;62.62;101931.78;10542478;28;20113;-61
2021/07/08 08:59:12;;;;;;;12.95;9.93;;;;;;;21.93;64.96;101935.84;10540454;28;20044;-61
2021/07/08 09:04:34;;;;;;;13.68;10.63;;;;;;;21.56;65.80;101944.38;10542085;28;20054;-61
2021/07/08 09:09:36;;;;;;;18.58;12.38;;;;;;;21.44;64.52;101940.91;10541557;28;20543;-59
2021/07/08 09:14:38;;;;;;;14.32;10.70;;;;;;;21.92;65.15;101942.13;10542294;28;20048;-60
2021/07/08 09:19:41;;;;;;;15.27;11.13;;;;;;;21.75;66.27;101940.94;10540573;28;20067;-60
2021/07/08 09:24:43;;;;;;;14.75;11.07;;;;;;;22.10;65.29;101939.69;10540072;28;20048;-61
2021/07/08 09:29:49;;;;;;;15.13;12.18;;;;;;;21.97;64.25;101944.41;10541076;28;20043;-61
2021/07/08 09:34:57;;;;;;;12.55;10.93;;;;;;;24.06;57.86;101943.06;10540979;28;20048;-61
2021/07/08 09:40:02;;;;;;;13.82;10.32;;;;;;;23.09;59.27;101971.72;10540874;28;20051;-60
2021/07/08 09:45:15;;;;;;;8.80;8.00;;;;;;;24.45;57.13;101962.41;10540671;28;20048;-61
2021/07/08 09:50:47;;;;;;;10.45;8.15;;;;;;;25.12;53.94;101950.47;10539256;28;20048;-61
2021/07/08 10:01:20;;;;;;;11.63;7.53;;;;;;;25.12;53.78;101970.06;10540479;28;20048;-62
2021/07/08 10:06:22;;;;;;;7.78;4.65;;;;;;;25.78;52.20;101965.16;10540898;28;20127;-60
2021/07/08 10:11:25;;;;;;;11.52;6.90;;;;;;;26.13;51.14;101963.31;10539992;28;20058;-61
2021/07/08 10:16:28;;;;;;;6.78;5.40;;;;;;;25.98;53.70;101951.53;10538337;28;20419;-61
2021/07/08 10:21:31;;;;;;;6.07;5.18;;;;;;;26.98;52.15;101944.34;10539384;28;20060;-62
2021/07/08 10:26:33;;;;;;;8.25;5.95;;;;;;;26.85;51.53;101955.59;10539457;28;20044;-62
2021/07/08 10:31:37;;;;;;;8.35;5.25;;;;;;;27.68;47.20;101955.50;10545400;28;20498;-61
2021/07/08 10:36:43;;;;;;;8.38;6.10;;;;;;;25.09;52.88;101954.31;10546458;28;20048;-62
2021/07/08 10:41:56;;;;;;;9.45;6.20;;;;;;;24.74;54.72;101956.00;10546540;28;20041;-62
2021/07/08 10:47:00;;;;;;;6.70;5.28;;;;;;;24.21;55.70;101943.38;10547229;28;20484;-61
2021/07/08 10:52:02;;;;;;;11.20;5.60;;;;;;;25.74;49.81;101926.25;10547261;28;20051;-61
2021/07/08 10:57:05;;;;;;;8.27;5.35;;;;;;;25.27;50.98;101916.78;10545736;28;20044;-62
2021/07/08 11:02:10;;;;;;;6.28;4.35;;;;;;;25.79;50.37;101921.25;10545732;28;20454;-61
2021/07/08 11:07:21;;;;;;;9.50;5.18;;;;;;;24.82;52.33;101918.59;10546531;28;20052;-63
2021/07/08 11:12:29;;;;;;;;;;;;;;;26.10;52.42;101920.72;10546665;28;20040;-61
2021/07/08 11:17:40;;;;;;;8.32;5.53;;;;;;;26.51;47.51;101921.63;10546408;28;19971;-61
2021/07/08 11:22:42;;;;;;;5.38;4.47;;;;;;;26.93;45.77;101910.91;10544841;28;20055;-61
2021/07/08 11:27:46;;;;;;;8.05;3.85;;;;;;;26.30;48.11;101915.91;10545625;28;20052;-62
2021/07/08 11:32:59;;;;;;;6.38;4.00;;;;;;;25.72;47.05;101912.16;10545559;28;20438;-61
2021/07/08 11:38:06;;;;;;;7.15;4.07;;;;;;;25.14;51.54;101908.28;10545490;28;20048;-63
2021/07/08 11:43:17;;;;;;;5.18;2.92;;;;;;;24.64;52.87;101921.28;10543613;28;20446;-62
2021/07/08 11:48:23;;;;;;;;;;;;;;;24.92;52.82;101925.72;10545482;28;20055;-61
2021/07/08 11:53:26;;;;;;;7.75;4.47;;;;;;;25.06;50.24;101921.63;10545266;28;19920;-61
2021/07/08 11:58:30;;;;;;;7.55;4.22;;;;;;;25.91;50.29;101930.69;10544515;28;20048;-62
2021/07/08 12:03:40;;;;;;;6.53;4.32;;;;;;;24.91;50.32;101938.25;10544644;28;20056;-61
2021/07/08 12:09:00;;;;;;;5.10;3.92;;;;;;;24.66;51.31;101930.03;10544026;28;20052;-60
2021/07/08 12:14:03;;;;;;;7.30;3.65;;;;;;;24.44;54.08;101917.03;10543959;28;20404;-61
2021/07/08 12:19:08;;;;;;;5.80;3.92;;;;;;;24.36;53.28;101914.28;10543617;28;20063;-61
2021/07/08 12:24:23;;;;;;;7.88;4.28;;;;;;;23.95;52.98;101906.66;10543662;28;20052;-61
2021/07/08 12:29:39;;;;;;;7.95;3.70;;;;;;;23.79;54.02;101904.59;10543212;28;20470;-61
2021/07/08 12:34:57;;;;;;;5.85;3.60;;;;;;;23.79;54.70;101919.78;10543053;28;20074;-61
2021/07/08 12:40:07;;;;;;;4.55;3.70;;;;;;;23.83;55.71;101907.84;10542988;28;20059;-63
2021/07/08 12:45:21;;;;;;;9.07;4.67;;;;;;;23.63;53.81;101921.25;10542637;28;20484;-62
2021/07/08 12:50:30;;;;;;;5.32;2.88;;;;;;;23.83;57.08;101922.06;10542464;28;20066;-63
2021/07/08 12:55:48;;;;;;;7.68;3.33;;;;;;;23.44;54.86;101916.00;10541850;28;20084;-61
2021/07/08 13:00:53;;;;;;;9.50;3.45;;;;;;;23.35;57.33;101926.56;10542074;28;20430;-62
2021/07/08 13:06:06;;;;;;;6.75;3.85;;;;;;;23.71;53.64;101921.38;10541877;28;20052;-62
2021/07/08 13:11:11;;;;;;;5.95;2.92;;;;;;;23.59;55.45;101921.69;10542010;28;20059;-62
2021/07/08 13:16:23;;;;;;;3.38;2.92;;;;;;;24.35;54.60;101931.34;10541088;28;20048;-62
2021/07/08 13:21:25;;;;;;;4.07;3.03;;;;;;;24.86;52.12;101937.88;10539948;28;20483;-62
2021/07/08 13:26:28;;;;;;;4.32;2.80;;;;;;;24.01;52.69;101929.31;10541246;28;20048;-62
2021/07/08 13:31:32;;;;;;;126.78;11.07;;;;;;;23.56;55.34;101925.53;10539840;28;20052;-61
2021/07/08 13:36:44;;;;;;;24.80;3.75;;;;;;;23.06;55.84;101925.75;10540557;28;20044;-63
2021/07/08 13:41:48;;;;;;;3.95;3.63;;;;;;;23.52;55.44;101924.97;10540554;28;20048;-63
2021/07/08 13:46:56;;;;;;;6.57;2.72;;;;;;;23.62;56.47;101921.41;10540259;28;20052;-63
2021/07/08 13:52:06;;;;;;;4.40;2.88;;;;;;;23.76;51.06;101915.59;10541310;28;20048;-62
2021/07/08 13:57:10;;;;;;;2.73;2.53;;;;;;;24.75;51.16;101924.75;10540346;28;20044;-61
2021/07/08 14:02:13;;;;;;;2.40;2.20;;;;;;;25.01;49.66;101914.88;10540502;28;20040;-62
2021/07/08 14:07:15;;;;;;;3.70;2.65;;;;;;;25.37;51.06;101916.69;10538664;28;20040;-62
2021/07/08 14:12:17;;;;;;;7.65;2.13;;;;;;;25.91;49.62;101913.75;10540477;28;20051;-63
2021/07/08 14:17:20;;;;;;;4.72;2.20;;;;;;;24.73;50.02;101914.19;10539432;28;20040;-61
2021/07/08 14:22:22;;;;;;;4.20;2.53;;;;;;;24.86;49.50;101913.75;10539528;28;20488;-63
2021/07/08 14:27:25;;;;;;;3.17;2.30;;;;;;;25.00;52.33;101920.44;10539048;28;20384;-62
2021/07/08 14:32:27;;;;;;;6.38;2.15;;;;;;;24.65;50.92;101916.78;10539359;28;20422;-62
2021/07/08 14:37:29;;;;;;;2.22;1.85;;;;;;;24.70;50.73;101925.19;10538795;28;20051;-63
2021/07/08 14:42:53;;;;;;;2.65;1.75;;;;;;;24.91;51.68;101919.50;10539347;28;20048;-62
2021/07/08 14:47:55;;;;;;;3.33;2.58;;;;;;;24.79;50.34;101916.22;10539603;28;20052;-62
2021/07/08 14:52:58;;;;;;;3.72;1.88;;;;;;;24.84;50.04;101916.59;10538151;28;20450;-62
2021/07/08 14:58:00;;;;;;;4.32;2.13;;;;;;;24.83;50.90;101914.06;10538898;28;20063;-62
2021/07/08 15:03:03;;;;;;;2.30;1.80;;;;;;;24.45;52.30;101913.38;10539415;28;20044;-62
2021/07/08 15:08:05;;;;;;;4.95;1.95;;;;;;;24.18;49.51;101923.13;10538605;28;20162;-62
2021/07/08 15:13:07;;;;;;;4.03;2.15;;;;;;;24.01;53.70;101923.97;10538402;28;20484;-63
2021/07/08 15:18:10;;;;;;;2.20;1.52;;;;;;;23.93;49.37;101919.34;10544035;28;20044;-63
2021/07/08 15:23:12;;;;;;;3.35;1.95;;;;;;;24.42;49.93;101925.22;10545151;28;20052;-63
2021/07/08 15:28:15;;;;;;;1.83;1.73;;;;;;;24.61;49.89;101912.72;10546204;28;20059;-62
2021/07/08 15:33:21;;;;;;;2.60;1.40;;;;;;;24.47;48.14;101911.38;10545861;28;20422;-62
2021/07/08 15:38:25;;;;;;;3.28;1.90;;;;;;;24.38;50.07;101923.03;10527983;28;20048;-62
2021/07/08 15:43:28;;;;;;;3.95;1.77;;;;;;;24.18;50.27;101917.78;10545045;28;20127;-62
2021/07/08 15:48:30;;;;;;;1.88;1.75;;;;;;;23.98;50.54;101921.56;10545308;28;20060;-63
2021/07/08 15:53:33;;;;;;;2.58;1.60;;;;;;;23.49;51.76;101921.75;10544402;28;20052;-60
2021/07/08 15:58:36;;;;;;;4.05;1.90;;;;;;;23.90;54.25;101923.13;10543339;28;20052;-63
2021/07/08 16:03:38;;;;;;;3.67;2.20;;;;;;;23.16;58.02;101916.75;10544358;28;20047;-62
2021/07/08 16:08:40;;;;;;;2.72;2.03;;;;;;;23.08;58.33;101926.47;10525641;28;20058;-63
2021/07/08 16:13:43;;;;;;;4.45;2.35;;;;;;;22.89;58.62;101927.31;10543851;28;20044;-62
2021/07/08 16:18:45;;;;;;;3.75;1.92;;;;;;;22.54;58.79;101924.19;10542755;28;20050;-62
2021/07/08 16:23:48;;;;;;;4.40;1.77;;;;;;;22.32;60.60;101933.31;10544029;28;20063;-63
2021/07/08 16:28:50;;;;;;;4.97;3.10;;;;;;;21.87;61.23;101933.69;10541662;28;20056;-62
2021/07/08 16:33:52;;;;;;;3.72;3.38;;;;;;;22.29;60.05;101938.91;10543013;28;20055;-63
2021/07/08 16:38:55;;;;;;;4.63;3.40;;;;;;;22.17;61.60;101931.97;10542640;28;20052;-62
2021/07/08 16:43:57;;;;;;;4.95;2.80;;;;;;;22.11;65.67;101938.72;10542065;28;20059;-63
2021/07/08 16:49:00;;;;;;;3.33;3.03;;;;;;;21.63;65.95;101934.88;10542788;28;20051;-62
2021/07/08 16:54:02;;;;;;;7.25;3.00;;;;;;;21.78;64.80;101940.69;10542789;28;20102;-62
2021/07/08 16:59:04;;;;;;;5.55;3.80;;;;;;;21.87;60.39;101931.91;10542304;28;20044;-62
2021/07/08 17:04:07;;;;;;;5.15;3.35;;;;;;;22.11;63.83;101940.50;10540876;28;20059;-63
2021/07/08 17:09:09;;;;;;;195.80;18.45;;;;;;;21.85;63.95;101943.66;10541877;28;20048;-63
2021/07/08 17:14:11;;;;;;;8.52;3.30;;;;;;;21.74;66.05;101939.28;10541834;28;20090;-62
2021/07/08 17:19:14;;;;;;;4.82;4.30;;;;;;;21.33;63.51;101935.66;10541332;28;20067;-62
2021/07/08 17:24:17;;;;;;;3.53;3.20;;;;;;;21.21;66.38;101929.56;10540863;28;20059;-62
2021/07/08 17:29:21;;;;;;;3.65;3.35;;;;;;;21.51;67.75;101930.59;10540887;28;20058;-61
2021/07/08 17:34:23;;;;;;;6.78;3.38;;;;;;;21.37;67.87;101928.25;10539454;28;20499;-62
2021/07/08 17:39:26;;;;;;;5.05;3.47;;;;;;;21.42;67.78;101939.38;10539701;28;20054;-60
2021/07/08 17:44:28;;;;;;;5.70;3.67;;;;;;;21.68;66.17;101939.81;10540570;28;20055;-63
2021/07/08 17:49:40;;;;;;;5.40;3.47;;;;;;;21.41;68.97;101951.00;10538827;28;20048;-63
2021/07/08 17:54:43;;;;;;;6.50;3.58;;;;;;;21.23;68.97;101950.72;10539639;28;20532;-63
2021/07/08 17:59:45;;;;;;;8.68;3.92;;;;;;;21.32;68.39;101968.59;10539718;28;20048;-63
2021/07/08 18:05:04;;;;;;;4.45;4.05;;;;;;;21.26;67.78;101983.28;10540185;28;20062;-64
2021/07/08 18:10:07;;;;;;;5.75;3.63;;;;;;;21.30;68.29;101986.50;10538936;28;20048;-63
2021/07/08 18:15:15;;;;;;;5.90;4.57;;;;;;;21.06;69.33;101986.75;10540167;28;20040;-62
2021/07/08 18:20:20;;;;;;;9.15;5.63;;;;;;;20.49;68.67;101992.22;10540337;28;20106;-62
2021/07/08 18:25:24;;;;;;;7.93;6.40;;;;;;;20.17;69.27;102006.31;10540574;28;20048;-63
2021/07/08 18:30:30;;;;;;;7.97;5.22;;;;;;;20.52;68.54;102005.28;10538176;28;20389;-62
2021/07/08 18:35:34;;;;;;;8.25;5.70;;;;;;;19.87;69.42;102012.22;10539424;28;20044;-61
2021/07/08 18:40:36;;;;;;;13.73;6.55;;;;;;;20.07;70.20;102026.59;10539352;28;20052;-63
2021/07/08 18:45:39;;;;;;;5.55;5.05;;;;;;;19.89;69.85;102026.22;10539527;28;20048;-62
2021/07/08 18:50:54;;;;;;;6.63;5.50;;;;;;;19.41;70.70;102021.00;10544025;28;20048;-62
2021/07/08 18:55:56;;;;;;;6.38;4.85;;;;;;;19.62;70.83;102016.72;10547865;28;20093;-62
2021/07/08 19:00:59;;;;;;;10.63;5.47;;;;;;;19.62;70.17;102035.31;10547423;28;20044;-62
2021/07/08 19:06:01;;;;;;;5.72;4.55;;;;;;;19.70;70.69;102041.84;10546749;28;20052;-62
2021/07/08 19:11:04;;;;;;;5.07;4.60;;;;;;;19.49;70.36;102059.31;10546705;28;20087;-62
2021/07/08 19:16:07;;;;;;;5.10;4.60;;;;;;;19.59;70.86;102055.97;10546375;28;20040;-62
2021/07/08 19:21:10;;;;;;;5.32;4.63;;;;;;;19.38;71.87;102038.00;10546239;28;20056;-63
2021/07/08 19:26:14;;;;;;;6.07;4.65;;;;;;;19.24;71.01;102036.41;10546272;28;20123;-62
2021/07/08 19:31:17;;;;;;;6.65;5.07;;;;;;;19.04;70.97;102039.69;10545745;28;20514;-63
2021/07/08 19:36:31;;;;;;;6.70;5.25;;;;;;;19.12;71.39;102066.53;10545997;28;20113;-62
2021/07/08 19:41:54;;;;;;;5.90;5.15;;;;;;;18.97;72.75;102062.34;10545792;28;20040;-62
2021/07/08 19:46:56;;;;;;;6.57;5.85;;;;;;;19.28;72.01;102064.44;10545667;28;20052;-63
2021/07/08 19:51:59;;;;;;;8.77;6.80;;;;;;;19.25;71.53;102064.66;10544933;28;20534;-63
2021/07/08 19:57:01;;;;;;;7.47;6.45;;;;;;;19.38;71.66;102069.88;10545004;28;20051;-63
2021/07/08 20:02:04;;;;;;;8.38;7.55;;;;;;;19.02;73.17;102084.09;10544038;28;20044;-63
2021/07/08 20:07:06;;;;;;;5.80;5.25;;;;;;;19.28;72.23;102075.06;10544457;28;20051;-62
2021/07/08 20:12:09;;;;;;;7.88;5.10;;;;;;;19.27;72.88;102077.81;10543098;28;20044;-62
2021/07/08 20:17:11;;;;;;;7.05;5.53;;;;;;;19.17;73.33;102082.97;10543845;28;20442;-62
2021/07/08 20:22:13;;;;;;;8.90;6.15;;;;;;;19.18;72.54;102079.34;10543547;28;20411;-62
2021/07/08 20:27:16;;;;;;;8.70;6.25;;;;;;;19.26;72.20;102087.56;10543751;28;20048;-63
2021/07/08 20:32:18;;;;;;;8.68;6.28;;;;;;;18.99;73.99;102089.59;10544067;28;20044;-63
2021/07/08 20:37:21;;;;;;;8.68;6.97;;;;;;;18.88;74.02;102096.53;10541844;28;20095;-63
2021/07/08 20:42:24;;;;;;;5.72;5.10;;;;;;;18.86;75.02;102090.50;10542923;28;20050;-63
2021/07/08 20:47:26;;;;;;;8.77;4.55;;;;;;;18.80;74.96;102088.25;10543026;28;20050;-63
2021/07/08 20:52:33;;;;;;;9.85;5.63;;;;;;;18.77;74.81;102084.97;10543460;28;20048;-63
2021/07/08 20:57:35;;;;;;;7.13;5.25;;;;;;;18.80;74.82;102074.16;10543269;28;20040;-63
2021/07/08 21:02:38;;;;;;;8.73;4.53;;;;;;;18.65;77.54;102076.94;10542234;28;20377;-62
2021/07/08 21:07:41;;;;;;;9.73;5.45;;;;;;;18.61;77.82;102080.78;10541882;28;20548;-62
2021/07/08 21:12:44;;;;;;;7.47;6.40;;;;;;;18.33;79.32;102073.91;10540916;28;20050;-61
2021/07/08 21:17:47;;;;;;;11.95;7.28;;;;;;;18.17;80.47;102084.72;10541435;28;20514;-62
2021/07/08 21:22:56;;;;;;;8.77;7.95;;;;;;;18.18;80.41;102089.09;10541390;28;20547;-62
2021/07/08 21:27:59;;;;;;;14.32;10.13;;;;;;;17.92;82.64;102094.38;10540924;28;20052;-63
2021/07/08 21:33:03;;;;;;;11.30;9.40;;;;;;;18.19;81.03;102102.22;10539904;28;20052;-61
2021/07/08 21:38:05;;;;;;;14.20;10.80;;;;;;;17.91;82.99;102105.91;10539741;28;20377;-62
2021/07/08 21:43:14;;;;;;;13.30;10.40;;;;;;;17.72;83.54;102111.59;10541192;28;20085;-62
2021/07/08 21:48:17;;;;;;;16.25;9.68;;;;;;;17.61;83.40;102112.28;10539876;28;20048;-62
2021/07/08 21:53:20;;;;;;;12.63;11.18;;;;;;;17.81;82.67;102103.00;10540973;28;20127;-62
2021/07/08 21:58:22;;;;;;;11.23;9.32;;;;;;;17.91;81.90;102105.09;10540283;28;20048;-63
2021/07/08 22:03:25;;;;;;;13.20;9.27;;;;;;;17.85;83.67;102103.63;10540817;28;20054;-63
2021/07/08 22:08:27;;;;;;;10.48;9.38;;;;;;;17.44;83.83;102109.91;10539978;28;20052;-62
2021/07/08 22:13:29;;;;;;;13.15;9.52;;;;;;;17.88;81.92;102110.59;10540056;28;20040;-63
2021/07/08 22:18:32;;;;;;;9.98;8.38;;;;;;;17.67;83.40;102121.63;10539411;28;20062;-62
2021/07/08 22:23:34;;;;;;;9.18;7.22;;;;;;;17.87;81.76;102117.69;10540047;28;20059;-62
2021/07/08 22:28:36;;;;;;;8.20;7.40;;;;;;;18.00;81.75;102121.22;10548032;28;20044;-62
2021/07/08 22:33:39;;;;;;;9.32;7.65;;;;;;;17.75;81.73;102110.50;10548454;28;20044;-62
2021/07/08 22:38:41;;;;;;;8.30;7.45;;;;;;;17.71;82.67;102116.97;10547786;28;20060;-64
2021/07/08 22:43:43;;;;;;;10.70;7.90;;;;;;;17.46;82.32;102118.59;10547821;28;20055;-62
2021/07/08 22:48:46;;;;;;;10.55;8.73;;;;;;;17.30;83.52;102100.22;10547573;28;20048;-63
2021/07/08 22:53:48;;;;;;;9.18;7.38;;;;;;;17.52;82.64;102104.97;10547715;28;20043;-63
2021/07/08 22:58:51;;;;;;;11.02;9.43;;;;;;;17.19;84.18;102108.00;10546606;28;20415;-62
2021/07/08 23:03:53;;;;;;;11.23;8.57;;;;;;;17.37;82.55;102095.38;10547488;28;20047;-62
2021/07/08 23:08:56;;;;;;;12.07;8.50;;;;;;;17.39;83.80;102085.53;10545705;28;20051;-64
2021/07/08 23:13:58;;;;;;;13.82;9.85;;;;;;;17.37;83.04;102083.00;10546674;28;20051;-62
2021/07/08 23:19:01;;;;;;;11.82;9.27;;;;;;;17.36;83.32;102089.22;10546272;28;20044;-62